Tiempo atmosférico en la estación meteorológica de Sevilla Aeropuerto, Sevilla (34 m.)



Fecha
DESCASC
Temp. máxima en grados centígrados (hora)
DESCASC
Temp. mínima en grados centígrados (hora)
DESCASC
Temp. media en grados centígrados
DESCASC
Racha de viento máxima en m/sg (hora)
DESCASC
Velocidad máxima media en intervalos de 10 minutos(hora)
DESCASC
Precipitaciones diarias en mm
DESCASC
Precipitaciones de 00:00 a 06:00 en mm
DESCASC
Precipitaciones de 06:00 a 12:00 en mm
DESCASC
Precipitaciones de 12:00 a 18:00 en mm
DESCASC
Precipitaciones de 18:00 a 24:00 en mm
DESCASC
21-03-2020 15.2 (11:40) 9 (00:00) 12.1 14.44 (16:10) 8.61 (01:10) 19.3 7.3 0.1 10.4 1.5
16-03-2020 17.2 (15:30) 8.6 (00:00) 12.9 13.89 (19:10) 10 (19:10) 0.1 0 0 0 0.1
22-03-2020 16.8 (16:50) 9.6 (02:10) 13.2 6.67 (12:10) 5.28 (11:50) 3.6 0.6 1 2 0
01-04-2020 17.2 (15:10) 9.7 (00:00) 13.5 10.83 (18:00) 6.94 (16:20) 3.5 0 0 0.7 2.8
17-03-2020 18.9 (15:50) 8.5 (00:00) 13.7 16.39 (13:50) 11.39 (15:00) 1.6 0 1.6 0 0
02-04-2020 17.1 (19:30) 10.5 (00:00) 13.8 8.89 (01:00) 6.11 (14:50) 4.4 4.3 0 0.1 0
27-03-2020 19.2 (15:30) 8.8 (00:00) 14 9.17 (14:50) 6.67 (19:00) 0 0 0 0 0
23-03-2020 19.3 (17:00) 9.2 (00:00) 14.2 9.72 (21:40) 7.22 (21:40) 0.1 0 0 0 0.1
06-03-2020 20.4 (16:30) 8.2 (00:00) 14.3 10.28 (12:50) 6.94 (13:00) 0 0 0 0 0
05-03-2020 20.5 (18:00) 8.2 (00:00) 14.3 10.83 (15:50) 7.22 (16:20) 0 0 0 0 0
07-03-2020 21.7 (18:00) 7.7 (00:00) 14.7 9.72 (14:10) 6.67 (14:40) 0 0 0 0 0
30-03-2020 19.2 (14:40) 10.6 (00:00) 14.9 11.39 (17:00) 7.5 (17:10) 11.5 0 0 3.8 7.7
03-04-2020 21.7 (17:00) 8.5 (08:00) 15.1 7.22 (15:20) 4.44 (19:50) 0 0 0 0 0
28-03-2020 21.1 (17:20) 9.3 (00:00) 15.2 8.33 (08:00) 5.83 (08:20) 0 0 0 0 0
08-03-2020 24.3 (18:10) 6.4 (00:00) 15.3 7.22 (10:20) 5 (10:20) 0 0 0 0 0
24-03-2020 21 (15:20) 10 (00:00) 15.5 11.67 (12:30) 8.06 (12:40) 0.4 0.4 0 0 0
31-03-2020 19.2 (14:00) 12.2 (00:00) 15.7 14.44 (17:30) 10 (13:50) 11.6 10.2 1.4 0 0
29-03-2020 22 (16:20) 10.2 (00:00) 16.1 7.22 (20:30) 5.56 (20:40) 0 0 0 0 0
25-03-2020 20.7 (17:10) 13.3 (00:00) 17 10.28 (18:40) 7.22 (18:10) 0.2 0.2 0 0 0
15-03-2020 23.7 (15:30) 10.8 (00:00) 17.3 9.72 (19:40) 7.78 (19:40) 0 0 0 0 0
20-03-2020 21.3 (16:30) 13.5 (00:00) 17.4 9.72 (21:40) 6.39 (21:20) 7.8 0 0 0 7.8
14-03-2020 22.8 (18:00) 12.6 (00:00) 17.7 6.67 (01:10) 4.72 (01:10) 0 0 0 0 0
13-03-2020 22.8 (16:40) 12.7 (02:20) 17.7 6.67 (14:40) 5 (20:00) 0 0 0 0 0
09-03-2020 25.2 (17:20) 10.4 (00:00) 17.8 7.78 (02:00) 5.83 (02:00) 0 0 0 0 0
19-03-2020 23.1 (16:10) 12.7 (00:00) 17.9 12.5 (11:50) 9.17 (12:00) 0 0 0 0 0
18-03-2020 24.4 (16:10) 11.7 (00:00) 18 15.28 (14:40) 9.72 (14:40) 0 0 0 0 0
12-03-2020 25.1 (16:10) 11 (00:00) 18.1 8.89 (18:20) 6.39 (18:20) 0 0 0 0 0
26-03-2020 24.2 (15:50) 12.7 (00:00) 18.5 13.33 (17:30) 10.28 (17:10) 0 0 0 0 0
10-03-2020 27.9 (17:00) 11.6 (00:00) 19.8 12.5 (12:20) 8.61 (11:30) 0 0 0 0 0
11-03-2020 31 (16:00) 10.4 (00:00) 20.7 8.33 (10:20) 5.83 (10:30) 0 0 0 0 0

Gráficas

Temp. máximas Temp. mínimas Temp. medias Precipitaciones Rachas de viento máximas Velocidades máximas media en intervalos de 10 minutos

Datos horarios

Fecha y hora oficial Temperatura (ºC) Velocidad del viento (km/h) Dirección del viento Racha (km/h) Dirección de racha Precipitación (mm) Presión (hPa) Tendencia (hPa) Humedad (%)
2020-04-03 23:00:00 15.6 8 Sudeste 22 Sudeste 0 1010.9 1.1 66
2020-04-03 22:00:00 17 15 Sudeste 22 Este 0 1010.2 0.6 62
2020-04-03 21:00:00 19.1 14 Este 21 Este 0 1009.6 -0.3 57
2020-04-03 20:00:00 21.1 14 Este 24 Este 0 1009.8 -0.5 44
2020-04-03 19:00:00 21.6 15 Este 24 Este 0 1009.6 -1.4 39
2020-04-03 18:00:00 21.5 14 Este 22 Este 0 1009.9 -1.8 44
2020-04-03 17:00:00 21.5 13 Este 26 Este 0 1010.3 -2.1 44
2020-04-03 16:00:00 20.7 11 Nordeste 26 Este 0 1011 -2.3 51
2020-04-03 15:00:00 20 11 Este 22 Este 0 1011.7 -2 54
2020-04-03 14:00:00 18.8 12 Este 21 Nordeste 0 1012.4 -1.4 60
2020-04-03 13:00:00 17.7 9 Nordeste 17 Nordeste 0 1013.3 0.2 67
2020-04-03 12:00:00 16 7 Este 13 Este 0 1013.7 0.8 75
2020-04-03 11:00:00 13.9 5 Nordeste 11 Este 0 1013.8 1.7 87
2020-04-03 10:00:00 11.6 10 Este 13 Este 0 1013.1 1.5 97
2020-04-03 09:00:00 9.5 0 Calma 5 Norte 0 1012.9 1.4 100
2020-04-03 08:00:00 8.6 0 Calma 4 Nordeste 0 1012.1 0.3 100
2020-04-03 07:00:00 9.1 0 Calma 9 Nordeste 0 1011.6 -0.3 100
2020-04-03 06:00:00 9.6 0 Calma 9 Sur 0 1011.5 -0.8 97
2020-04-03 05:00:00 10.5 5 Sur 15 Sur 0 1011.8 -0.8 97
2020-04-03 04:00:00 10.7 9 Sur 15 Sur 0 1011.9 -0.7 98
2020-04-03 03:00:00 10.7 4 Sudeste 13 Sur 0 1012.3 -0.1 96
2020-04-03 02:00:00 11.3 7 Sur 9 Sudoeste 0 1012.6 0.4 89
2020-04-03 01:00:00 12.4 3 Sudeste 13 Sudoeste 0 1012.6 1.1 84
2020-04-03 00:00:00 13.1 11 Sur 17 Sur 0 1012.4 1.8 81
2020-04-02 23:00:00 13.6 11 Sur 17 Sur 0 1012.2 2 76
2020-04-02 22:00:00 13.9 10 Sur 13 Sur 0 1011.5 1.3 72
2020-04-02 21:00:00 15.6 6 Sur 11 Sur 0 1010.6 0.9 60
2020-04-02 20:00:00 16.9 6 Sur 11 Sur 0 1010.2 0.6 55
2020-04-02 19:00:00 16.8 6 Sur 15 Este 0 1010.2 1.2 56
2020-04-02 18:00:00 16.4 6 Sudeste 17 Este 0 1009.7 0.6 57
2020-04-02 17:00:00 15.2 9 Este 28 Este 0 1009.6 0.8 63
2020-04-02 16:00:00 15.9 6 Sudeste 22 Sudeste 0 1009 0.2 60
2020-04-02 15:00:00 15.6 18 Este 32 Este 0 1009.1 0.5 68
2020-04-02 14:00:00 15.3 9 Nordeste 17 Nordeste 0 1008.8 0.7 66
2020-04-02 13:00:00 12.8 14 Nordeste 22 Nordeste 0.1 1008.8 1.3 75
2020-04-02 12:00:00 13.3 2 Sudeste 11 Oeste 0 1008.6 2 91
2020-04-02 11:00:00 11.4 3 Norte 13 Norte 0 1008.1 1.5 100
2020-04-02 10:00:00 10.7 6 Noroeste 13 Norte 0 1007.5 1.1 100
2020-04-02 09:00:00 11.1 3 Norte 8 Este 0 1006.6 0.5 100
2020-04-02 08:00:00 10.6 0 Calma 9 Oeste 0 1006.6 0.1 100
2020-04-02 07:00:00 11.3 7 Oeste 15 Oeste 0 1006.4 -0.5 100
2020-04-02 06:00:00 11.6 7 Sudoeste 13 Sur 0 1006.1 -1.5 100
2020-04-02 05:00:00 11.9 9 Sudoeste 17 Sudoeste 0 1006.5 -1.7 100
2020-04-02 04:00:00 11.9 10 Sur 22 Sudoeste 0.3 1006.9 -2.2 100
2020-04-02 03:00:00 11.7 16 Sur 30 Sur 2.2 1007.6 -1.9 100
2020-04-02 02:00:00 11.7 12 Sur 24 Sur 0.2 1008.2 -1.3 99
2020-04-02 01:00:00 11.9 18 Sur 32 Sur 1.6 1009.1 0 91
2020-04-02 00:00:00 12.2 15 Sur 28 Sudoeste 1.7 1009.5 0.8 88
2020-04-01 23:00:00 12.6 13 Sur 22 Sur 0 1009.5 0.8 85
2020-04-01 22:00:00 12.8 9 Sur 17 Sudoeste 0 1009.1 0.1 80
2020-04-01 21:00:00 14.2 14 Sudoeste 21 Sur 0 1008.7 -0.4 71
2020-04-01 20:00:00 13.8 9 Sudeste 13 Este 0 1008.7 -0.3 80
2020-04-01 19:00:00 13.2 5 Nordeste 28 Oeste 1.1 1009 -0.2 80
2020-04-01 18:00:00 14.6 24 Oeste 39 Oeste 0.3 1009.1 -0.2 68
2020-04-01 17:00:00 14.3 10 Sur 37 Oeste 0.4 1009 -0.8 69
2020-04-01 16:00:00 15.8 23 Oeste 32 Oeste 0 1009.2 -0.9 61
2020-04-01 15:00:00 16.9 15 Sudoeste 30 Sur 0 1009.3 -1.3 47
2020-04-01 14:00:00 16.6 11 Sudoeste 21 Sudoeste 0 1009.8 -0.8 47
2020-04-01 13:00:00 15.8 7 Sudeste 18 Sur 0 1010.1 -0.1 52
2020-04-01 12:00:00 14.8 8 Sur 18 Sudeste 0 1010.6 0.9 55
2020-04-01 11:00:00 13.1 8 Sur 11 Sur 0 1010.6 1.9 62
2020-04-01 10:00:00 11.5 8 Sur 11 Sur 0 1010.2 1.8 86
2020-04-01 09:00:00 10.5 5 Sur 9 Sur 0 1009.7 1.8 92
2020-04-01 08:00:00 10 0 Calma 5 Noroeste 0 1008.7 1.1 90
2020-04-01 07:00:00 9.8 0 Calma 8 Oeste 0 1008.4 0.9 89
2020-04-01 06:00:00 9.7 0 Calma 5 Oeste 0 1007.9 0.4 93
2020-04-01 05:00:00 10.5 0 Calma 9 Sudoeste 0 1007.6 -0.1 92
2020-04-01 04:00:00 10.6 3 Sudoeste 8 Sur 0 1007.5 0.1 92
2020-04-01 03:00:00 12.1 8 Oeste 13 Sudoeste 0 1007.5 0.5 88
2020-04-01 02:00:00 12.4 8 Sudoeste 18 Sudoeste 0 1007.7 1.3 87
2020-04-01 01:00:00 12.8 14 Sudoeste 18 Sudoeste 0 1007.4 2 86
2020-04-01 00:00:00 12.8 13 Sudoeste 22 Sudoeste 0 1007 2.8 84
2020-03-31 23:00:00 13.5 16 Sudoeste 28 Sudoeste 0 1006.4 3.3 80
2020-03-31 22:00:00 14.2 17 Sudoeste 33 Sudoeste 0 1005.4 3 77
2020-03-31 21:00:00 15.3 20 Sudoeste 39 Sudoeste 0 1004.2 2.5 72
2020-03-31 20:00:00 16.9 26 Sudoeste 39 Sudoeste 0 1003.1 2.1 63
2020-03-31 19:00:00 17.6 30 Sudoeste 45 Sudoeste 0 1002.4 1.3 64
2020-03-31 18:00:00 18.3 31 Sudoeste 52 Sudoeste 0 1001.7 0.5 66
2020-03-31 17:00:00 18.6 35 Sudoeste 48 Sudoeste 0 1001 0.1 68
2020-03-31 16:00:00 18 27 Sudoeste 45 Sudoeste 0 1001.1 0 70
2020-03-31 15:00:00 17.7 31 Sudoeste 46 Sudoeste 0 1001.2 0.1 71
2020-03-31 14:00:00 18.8 32 Sudoeste 50 Sudoeste 0 1000.9 -0.2 64
2020-03-31 13:00:00 16 22 Sudoeste 35 Sur 0 1001.1 0.2 80
2020-03-31 12:00:00 16.4 21 Sur 33 Sur 1.3 1001.1 0.9 86
2020-03-31 11:00:00 15.3 14 Sur 22 Sur 0 1001.1 1.6 88
2020-03-31 10:00:00 13.8 12 Sudoeste 24 Sur 0 1000.9 1.7 98
2020-03-31 09:00:00 12.8 15 Sur 24 Sur 0 1000.2 1.6 100
2020-03-31 08:00:00 12.8 15 Sur 32 Sur 0 999.5 0.6 99
2020-03-31 07:00:00 13.2 14 Sur 33 Sur 0.1 999.2 -0.2 100
2020-03-31 06:00:00 13.1 24 Sur 41 Sur 2.4 998.6 -1.2 100
2020-03-31 05:00:00 12.6 16 Sudeste 24 Sudeste 0.2 998.9 -1.9 100
2020-03-31 04:00:00 12.5 21 Sudeste 35 Este 0.4 999.4 -2.4 100
2020-03-31 03:00:00 12.3 19 Este 32 Sudeste 2.6 999.8 -2.9 100
2020-03-31 02:00:00 12.4 22 Sudeste 33 Este 0.1 1000.8 -2.6 100
2020-03-31 01:00:00 12.2 17 Este 28 Sudeste 4.5 1001.8 -2.2 100
2020-03-31 00:00:00 12.2 19 Sudeste 28 Sudeste 1.8 1002.7 -1.4 100
2020-03-30 23:00:00 12.3 13 Este 21 Este 3.6 1003.4 -1.5 99
2020-03-30 22:00:00 12.8 10 Este 15 Sudeste 0 1004 -1.2 90
2020-03-30 21:00:00 13.2 10 Nordeste 13 Nordeste 0 1004.1 -1.3 90
2020-03-30 20:00:00 13.4 7 Nordeste 13 Norte 0.4 1004.9 -0.6 88
2020-03-30 19:00:00 13.3 9 Noroeste 32 Oeste 1.9 1005.2 -1.1 83
2020-03-30 18:00:00 15 25 Oeste 39 Oeste 0.2 1005.4 -1.3 74
2020-03-30 17:00:00 16.3 20 Oeste 41 Oeste 2.5 1005.5 -2.3 75
2020-03-30 16:00:00 15.9 16 Oeste 37 Sudoeste 1.1 1006.3 -2.1 81
2020-03-30 15:00:00 19.1 10 Sudoeste 21 Oeste 0 1006.7 -2.4 54
2020-03-30 14:00:00 18.3 12 Sudoeste 18 Sudoeste 0 1007.8 -1.9 58
2020-03-30 13:00:00 17.6 8 Sur 18 Oeste 0 1008.4 -1.5 64
2020-03-30 12:00:00 16 7 Sudeste 15 Sudeste 0 1009.1 -0.8 77
2020-03-30 11:00:00 13.9 5 Sudeste 9 Sudeste 0 1009.7 0.1 86
2020-03-30 10:00:00 12.9 3 Sudeste 8 Sudeste 0 1009.9 0 96
2020-03-30 09:00:00 11.8 2 Sudoeste 8 Sudoeste 0 1009.9 -0.2 100
2020-03-30 08:00:00 11 0 Calma -- -- 0 1009.6 -1.1 100
2020-03-30 07:00:00 11.4 0 Calma 5 Sur 0 1009.9 -1.4 100
2020-03-30 06:00:00 10.8 0 Calma -- -- 0 1010.1 -1.8 100
2020-03-30 05:00:00 12.2 3 Sur 13 Sur 0 1010.7 -1.6 99
2020-03-30 04:00:00 12.7 7 Sur 13 Sudoeste 0 1011.3 -1.4 98
2020-03-30 03:00:00 13.1 8 Sudoeste 17 Sudoeste 0 1011.9 -1.2 92
2020-03-30 02:00:00 13.8 13 Sudoeste 18 Sudoeste 0 1012.3 -0.9 89
2020-03-30 01:00:00 14.2 10 Sudoeste 17 Sudoeste 0 1012.7 -0.1 85
2020-03-30 00:00:00 15.1 13 Sudoeste 22 Sudoeste 0 1013.1 0.6 81
2020-03-29 23:00:00 16.2 12 Sur 18 Sudoeste 0 1013.2 1.1 71
2020-03-29 22:00:00 17 14 Oeste 26 Sudoeste 0 1012.8 0.6 69
2020-03-29 21:00:00 17.6 19 Sudoeste 26 Sudoeste 0 1012.5 0.2 68
2020-03-29 20:00:00 20 12 Oeste 17 Sudoeste 0 1012.1 -0.7 45
2020-03-29 19:00:00 20.5 12 Sudoeste 18 Sudoeste 0 1012.2 -1.3 44
2020-03-29 18:00:00 21.2 9 Sudoeste 17 Sudoeste 0 1012.3 -1.9 39
2020-03-29 17:00:00 21.4 12 Sudoeste 21 Sudoeste 0 1012.8 -2 39
2020-03-29 16:00:00 21.2 8 Oeste 15 Oeste 0 1013.5 -1.9 42
2020-03-29 15:00:00 20.9 5 Sur 18 Sudoeste 0 1014.2 -1.8 45
2020-03-29 14:00:00 19.5 5 Norte 13 Norte 0 1014.8 -1.3 50
2020-03-29 13:00:00 18.6 5 Sur 15 Este 0 1015.4 -0.5 54
2020-03-29 12:00:00 16.8 7 Nordeste 13 Norte 0 1016 0.3 64
2020-03-29 11:00:00 14.2 4 Nordeste 13 Nordeste 0 1016.1 0.8 76
2020-03-29 10:00:00 11.8 6 Nordeste 11 Norte 0 1015.9 0.9 89
2020-03-29 09:00:00 10.3 6 Norte 11 Nordeste 0 1015.7 0.7 95
2020-03-29 08:00:00 10.4 0 Calma 8 Este 0 1015.3 0.1 93
2020-03-29 07:00:00 10.9 6 Norte -- -- 0 1015 -0.5 92
2020-03-29 06:00:00 11.1 5 Sudeste 8 Oeste 0 1015 -0.7 88
2020-03-29 05:00:00 12.7 4 Oeste 13 Oeste 0 1015.2 -0.6 82
2020-03-29 03:00:00 12.3 5 Sudoeste 8 Sudoeste 0 1015.7 0.5 81
2020-03-29 01:00:00 13.3 4 Oeste 11 Oeste 0 1015.8 1.1 73
2020-03-29 00:00:00 13.9 3 Oeste 11 Sudoeste 0 1015.7 1.8 71
2020-03-28 23:00:00 15 10 Sudoeste 18 Sudoeste 0 1015.2 2.4 65
2020-03-28 22:00:00 16 13 Sudoeste 30 Sudoeste 0 1014.7 2.4 59
2020-03-28 21:00:00 17.1 18 Sudoeste 28 Sudoeste 0 1013.9 2 60
2020-03-28 20:00:00 19.1 9 Noroeste 13 Oeste 0 1012.8 1.1 42
2020-03-28 19:00:00 20.4 0 Calma 13 Norte 0 1012.3 0.5 37
2020-03-28 18:00:00 20.7 4 Sudoeste 18 Sur 0 1011.9 -0.2 37
2020-03-28 17:00:00 20.5 8 Sudoeste 15 Oeste 0 1011.7 -0.8 39
2020-03-28 16:00:00 20.5 7 Sur 21 Sudoeste 0 1011.8 -0.9 39
2020-03-28 15:00:00 19.5 7 Sudoeste 15 Sudoeste 0 1012.1 -0.7 44
2020-03-28 14:00:00 19.5 7 Sudoeste 21 Sudeste 0 1012.5 -0.5 44
2020-03-28 13:00:00 18.9 12 Sur 26 Sudeste 0 1012.7 -0.1 48
2020-03-28 12:00:00 17.2 11 Este 21 Este 0 1012.8 0.8 57
2020-03-28 11:00:00 15.4 10 Nordeste 21 Este 0 1013 1.7 62
2020-03-28 10:00:00 13.2 11 Este 24 Este 0 1012.8 2.2 66
2020-03-28 09:00:00 11.4 18 Este 30 Este 0 1012 1.9 70
2020-03-28 08:00:00 9.8 20 Este 30 Este 0 1011.3 1.4 77
2020-03-28 07:00:00 9.6 12 Este 22 Este 0 1010.6 0.8 79
2020-03-28 06:00:00 9.9 12 Este 18 Este 0 1010.1 0.3 79
2020-03-28 05:00:00 9.9 6 Este 15 Nordeste 0 1009.9 0 90
2020-03-28 04:00:00 10.1 8 Nordeste 15 Nordeste 0 1009.8 -0.1 91
2020-03-28 03:00:00 10.7 6 Nordeste 13 Sur 0 1009.8 0.3 88
2020-03-28 02:00:00 11.3 8 Sur 18 Sudeste 0 1009.9 0.8 85
2020-03-28 01:00:00 12.1 7 Sudeste 13 Sur 0 1009.9 1.3 87
2020-03-28 00:00:00 12.3 7 Sudeste 9 Sur 0 1009.5 1.7 84
2020-03-27 23:00:00 13.2 4 Este 11 Sudoeste 0 1009.1 2.3 79
2020-03-27 22:00:00 13.8 8 Sudoeste 17 Sudoeste 0 1008.6 2.4 76
2020-03-27 21:00:00 14.2 6 Sur 28 Sudoeste 0 1007.8 2.1 73
2020-03-27 20:00:00 15 19 Sudoeste 33 Sudoeste 0 1006.8 1.4 66
2020-03-27 19:00:00 17.1 24 Sudoeste 32 Sudoeste 0 1006.2 0.7 49
2020-03-27 18:00:00 18.7 14 Sudoeste 24 Sudoeste 0 1005.7 -0.2 43
2020-03-27 17:00:00 19.1 15 Sudoeste 28 Sudoeste 0 1005.4 -1.1 42
2020-03-27 16:00:00 18.8 16 Sudoeste 30 Sudoeste 0 1005.5 -1.4 43
2020-03-27 15:00:00 18.1 16 Sudoeste 33 Sudoeste 0 1005.9 -1.7 45
2020-03-27 14:00:00 17 17 Sudoeste 30 Sudoeste 0 1006.5 -0.9 52
2020-03-27 13:00:00 15.4 18 Sudoeste 30 Sudoeste 0 1006.9 -0.1 59
2020-03-27 12:00:00 13.2 10 Sudoeste 21 Sudoeste 0 1007.6 1.5 67
2020-03-27 11:00:00 12.2 12 Sur 22 Sur 0 1007.4 1.8 74
2020-03-27 10:00:00 10.7 10 Sur 15 Sudoeste 0 1007 1.6 88
2020-03-27 09:00:00 9.3 9 Sur 15 Sur 0 1006.1 1 100
2020-03-27 08:00:00 9 9 Sudoeste 17 Sudoeste 0 1005.6 0.8 100
2020-03-27 07:00:00 8.9 13 Sudoeste 18 Sudoeste 0 1005.4 0.3 100
2020-03-27 06:00:00 9.8 10 Sur 15 Sur 0 1005.1 -0.5 94
2020-03-27 05:00:00 9.7 8 Sudoeste 9 Sudoeste 0 1004.8 -1.3 92
2020-03-27 04:00:00 10.5 0 Calma 5 Oeste 0 1005.1 -1 88
2020-03-27 03:00:00 11.8 2 Oeste 18 Oeste 0 1005.6 -0.8 84
2020-03-27 02:00:00 13.3 12 Oeste 18 Noroeste 0 1006.1 -0.5 76
2020-03-27 01:00:00 13.6 15 Oeste 22 Oeste 0 1006.1 -0.3 74
2020-03-27 00:00:00 14.9 14 Oeste 21 Oeste 0 1006.4 0.5 66
2020-03-26 23:00:00 15.2 11 Oeste 22 Oeste 0 1006.6 1.4 62
2020-03-26 22:00:00 17.2 15 Oeste 24 Oeste 0 1006.4 1.4 53
2020-03-26 21:00:00 18.2 16 Oeste 30 Oeste 0 1005.9 1.1 47
2020-03-26 20:00:00 19.7 22 Oeste 35 Oeste 0 1005.2 0.4 44
2020-03-26 19:00:00 21.7 31 Oeste 42 Oeste 0 1005 -0.1 37
2020-03-26 18:00:00 22.8 33 Oeste 48 Oeste 0 1004.8 -0.9 32
2020-03-26 17:00:00 23.8 35 Oeste 46 Oeste 0 1004.8 -1.9 30
2020-03-26 16:00:00 23.8 27 Sudoeste 39 Oeste 0 1005.1 -2.7 28
2020-03-26 15:00:00 23 17 Sudoeste 30 Oeste 0 1005.7 -3 38
2020-03-26 14:00:00 21.2 15 Sudoeste 26 Sudoeste 0 1006.7 -2.6 51
2020-03-26 13:00:00 18.9 11 Sudoeste 18 Sudoeste 0 1007.8 -1.4 60
2020-03-26 12:00:00 17.1 8 Sudoeste 18 Sudoeste 0 1008.7 -0.5 70
2020-03-26 11:00:00 14.9 5 Noroeste 18 Oeste 0 1009.3 0.1 81
2020-03-26 10:00:00 14 8 Sudoeste 17 Sur 0 1009.2 0 88
2020-03-26 09:00:00 13.4 11 Sudoeste 17 Sudoeste 0 1009.2 -0.2 90
2020-03-26 08:00:00 12.8 14 Sudoeste 22 Sudoeste 0 1009.2 -0.4 88
2020-03-26 07:00:00 12.9 14 Sudoeste 22 Sudoeste 0 1009.2 -0.7 86
2020-03-26 06:00:00 12.9 15 Sudoeste 22 Sudoeste 0 1009.4 -1.4 84
2020-03-26 05:00:00 12.9 13 Sudoeste 22 Sudoeste 0 1009.6 -1.9 85
2020-03-26 04:00:00 13.1 15 Sudoeste 22 Sudoeste 0 1009.9 -1.9 84
2020-03-26 03:00:00 13.8 17 Sudoeste 24 Sudoeste 0 1010.8 -1.4 82
2020-03-26 02:00:00 14.5 13 Sudoeste 21 Oeste 0 1011.5 -1 89
2020-03-26 01:00:00 14.7 12 Oeste 18 Oeste 0 1011.8 -0.5 87
2020-03-26 00:00:00 14.6 13 Sudoeste 17 Oeste 0 1012.2 0.4 85
2020-03-25 23:00:00 14.6 12 Sudoeste 17 Sudoeste 0 1012.5 1.1 84
2020-03-25 22:00:00 15.1 9 Sudoeste 24 Oeste 0 1012.3 1.5 79
2020-03-25 21:00:00 16.1 17 Sudoeste 35 Oeste 0 1011.8 1.2 72
2020-03-25 20:00:00 17.3 22 Oeste 35 Sudoeste 0 1011.4 0.6 66
2020-03-25 19:00:00 18.4 23 Sudoeste 37 Sudoeste 0 1010.8 -0.3 64
2020-03-25 18:00:00 19.4 24 Sudoeste 33 Sudoeste 0 1010.6 -1.1 60
2020-03-25 17:00:00 20.1 16 Sudoeste 32 Sudoeste 0 1010.8 -1.6 56
2020-03-25 16:00:00 19.8 17 Sudoeste 35 Sudoeste 0 1011.1 -2.3 56
2020-03-25 15:00:00 19.9 14 Sudoeste 22 Sudoeste 0 1011.7 -1.9 52
2020-03-25 14:00:00 19.5 12 Oeste 21 Noroeste 0 1012.4 -1 51
2020-03-25 13:00:00 18.1 8 Norte 17 Norte 0 1013.4 0.3 56
2020-03-25 12:00:00 17.4 7 Noroeste 15 Oeste 0 1013.6 1 58
2020-03-25 11:00:00 16 6 Oeste 11 Noroeste 0 1013.4 1.1 67
2020-03-25 10:00:00 14.3 4 Nordeste 15 Nordeste 0 1013.1 1.3 70
2020-03-25 09:00:00 13.9 10 Nordeste 15 Nordeste 0 1012.6 1.1 72
2020-03-25 08:00:00 13.4 7 Norte 15 Nordeste 0 1012.3 1.4 80
2020-03-25 07:00:00 13.6 10 Nordeste 15 Nordeste 0 1011.8 1.1 74
2020-03-25 06:00:00 14.1 8 Nordeste 13 Este 0.2 1011.5 0.7 71
2020-03-25 05:00:00 14.2 10 Sudeste 18 Este 0 1010.9 0.3 71
2020-03-25 04:00:00 14.2 9 Este 15 Este 0 1010.7 0.4 74
2020-03-25 03:00:00 14.2 5 Este 11 Este 0 1010.8 0.8 79
2020-03-25 02:00:00 14.4 9 Este 21 Este 0 1010.6 1.1 77
2020-03-25 01:00:00 14.5 9 Este 17 Este 0 1010.3 1.7 76
2020-03-25 00:00:00 15 3 Nordeste 9 Este 0 1010 2.3 95
2020-03-24 23:00:00 15.6 4 Sudeste 11 Sur 0 1009.5 2.7 88
2020-03-24 22:00:00 16.9 8 Sur 13 Sur 0 1008.6 2.4 77
2020-03-24 21:00:00 18.1 8 Norte 11 Norte 0 1007.7 1.8 72
2020-03-24 20:00:00 18.8 7 Oeste 9 Oeste 0 1006.8 1.4 68
2020-03-24 19:00:00 20.1 2 Norte 11 Este 0 1006.2 0.8 54
2020-03-24 18:00:00 20.5 7 Nordeste 24 Este 0 1005.9 0.4 52
2020-03-24 17:00:00 20.7 18 Nordeste 30 Nordeste 0 1005.4 -0.7 48
2020-03-24 16:00:00 20.7 17 Este 32 Este 0 1005.4 -1.1 49
2020-03-24 15:00:00 20.4 19 Nordeste 33 Este 0 1005.5 -1 48
2020-03-24 14:00:00 19.2 23 Nordeste 39 Este 0 1006.1 -0.2 49
2020-03-24 13:00:00 18.6 26 Este 42 Este 0 1006.5 0.2 54
2020-03-24 12:00:00 18 26 Este 39 Nordeste 0 1006.5 0.2 57
2020-03-24 11:00:00 16.9 25 Nordeste 39 Nordeste 0 1006.3 0.3 60
2020-03-24 10:00:00 14.8 16 Nordeste 22 Norte 0 1006.3 0.5 73
2020-03-24 09:00:00 11.9 9 Nordeste 13 Nordeste 0 1006.3 0.6 96
2020-03-24 08:00:00 10.7 6 Nordeste 11 Norte 0 1006 0.1 98
2020-03-24 07:00:00 10.3 8 Nordeste 13 Nordeste 0 1005.8 -0.4 100
2020-03-24 06:00:00 10.1 7 Nordeste 13 Nordeste 0 1005.7 -1.1 100
2020-03-24 05:00:00 10.4 10 Nordeste 17 Nordeste 0 1005.9 -1.7 100
2020-03-24 04:00:00 10.8 11 Nordeste 15 Nordeste 0 1006.2 -2 100
2020-03-24 03:00:00 11.6 12 Nordeste 18 Norte 0 1006.8 -1.6 98
2020-03-24 02:00:00 12 12 Nordeste 17 Nordeste 0 1007.6 -0.9 91
2020-03-24 01:00:00 12.2 9 Norte 17 Este 0.4 1008.2 0.1 92
2020-03-24 00:00:00 12.3 10 Este 24 Este 0.1 1008.4 0.5 87
2020-03-23 23:00:00 12.6 11 Nordeste 30 Este 0 1008.5 1.3 82
2020-03-23 22:00:00 13.5 22 Nordeste 35 Nordeste 0 1008.1 1.6 76
2020-03-23 21:00:00 14.3 18 Este 28 Este 0 1007.9 1.8 68
2020-03-23 20:00:00 15.5 14 Este 22 Este 0 1007.2 1.2 63
2020-03-23 19:00:00 16.5 11 Este 28 Este 0 1006.5 0.2 65
2020-03-23 18:00:00 17.4 21 Este 32 Este 0 1006.1 -0.7 58
2020-03-23 17:00:00 19.3 16 Este 30 Este 0 1006 -1.9 48
2020-03-23 16:00:00 18.2 16 Nordeste 30 Nordeste 0 1006.3 -2.5 51
2020-03-23 15:00:00 17.7 17 Este 28 Este 0 1006.8 -2.5 55
2020-03-23 14:00:00 17.1 13 Este 24 Nordeste 0 1007.9 -1.9 57
2020-03-23 13:00:00 16.8 17 Nordeste 28 Este 0 1008.8 -1.1 63
2020-03-23 12:00:00 15.9 16 Este 28 Nordeste 0 1009.3 -0.3 66
2020-03-23 11:00:00 14.8 17 Nordeste 26 Este 0 1009.8 0.6 75
2020-03-23 10:00:00 12.7 14 Nordeste 21 Nordeste 0 1009.9 1 88
2020-03-23 09:00:00 10.9 8 Este 13 Este 0 1009.6 0.8 100
2020-03-23 08:00:00 9.6 6 Este 9 Este 0 1009.2 0.7 100
2020-03-23 07:00:00 9.3 8 Norte 11 Norte 0 1008.9 0.5 100
2020-03-23 06:00:00 9.5 6 Norte 11 Norte 0 1008.8 0.1 100
2020-03-23 05:00:00 9.7 4 Este 9 Este 0 1008.5 -0.6 100
2020-03-23 04:00:00 9.9 4 Nordeste 11 Nordeste 0 1008.4 -0.8 100
2020-03-23 03:00:00 10.6 7 Norte 9 Nordeste 0 1008.7 -0.6 100
2020-03-23 02:00:00 11.4 2 Este 9 Este 0 1009.1 -0.1 91
2020-03-23 01:00:00 12.1 5 Este 13 Nordeste 0 1009.2 0.1 87
2020-03-23 00:00:00 12 6 Nordeste 11 Norte 0 1009.3 0.7 91
2020-03-22 23:00:00 11.6 6 Norte 11 Noroeste 0 1009.2 1 94
2020-03-22 22:00:00 11.8 6 Sudeste 11 Sudeste 0 1009.1 1.5 89
2020-03-22 21:00:00 12.8 2 Sur 8 Nordeste 0 1008.6 1.5 79
2020-03-22 20:00:00 14 6 Nordeste 13 Nordeste 0 1008.2 1.3 72
2020-03-22 19:00:00 15 10 Norte 24 Norte 0 1007.6 0.5 69
2020-03-22 18:00:00 16.4 8 Noroeste 21 Norte 0 1007.1 -0.2 63
2020-03-22 17:00:00 16.3 7 Norte 15 Norte 0 1006.9 -1.2 58
2020-03-22 16:00:00 15.7 10 Oeste 15 Oeste 0 1007.1 -1.3 66
2020-03-22 15:00:00 14.9 5 Norte 9 Oeste 0 1007.3 -1.2 71
2020-03-22 14:00:00 12.4 6 Sudeste 17 Este 0 1008.1 -0.2 93
2020-03-22 13:00:00 11.3 12 Este 24 Nordeste 2 1008.4 0.5 100
2020-03-22 12:00:00 11.6 17 Nordeste 22 Nordeste 1 1008.5 1.2 97
2020-03-22 11:00:00 12.6 8 Este 13 Este 0 1008.3 1.3 86
2020-03-22 10:00:00 11.5 5 Sudeste 13 Este 0 1007.9 1.3 96
2020-03-22 09:00:00 10.9 5 Sudeste 8 Sudeste 0 1007.3 0.8 100
2020-03-22 08:00:00 10.3 2 Sudeste 8 Sudeste 0 1007 0.7 100
2020-03-22 07:00:00 10.3 4 Sudeste 9 Sur 0 1006.6 0.2 100
2020-03-22 06:00:00 10.2 2 Sur 11 Sur 0.1 1006.5 -0.1 100
2020-03-22 05:00:00 10.2 6 Sudeste 8 Sudeste 0.5 1006.3 -0.6 100
2020-03-22 04:00:00 10 2 Este 9 Este 0 1006.4 -0.9 100
2020-03-22 03:00:00 9.8 4 Este 11 Este 0 1006.6 -1.1 100
2020-03-22 02:00:00 9.9 7 Este 15 Sudeste 0 1006.9 -0.7 100
2020-03-22 01:00:00 10.3 10 Sudeste 15 Sudeste 0 1007.3 -0.4 100
2020-03-22 00:00:00 10.3 8 Este 15 Norte 0 1007.7 0.2 100
2020-03-21 23:00:00 9.9 7 Este 11 Sudeste 0 1007.6 0.6 100
2020-03-21 22:00:00 9.8 5 Sudeste 9 Sudeste 0 1007.7 1.1 100
2020-03-21 21:00:00 9.8 5 Sudeste 11 Sudeste 0 1007.5 1.1 100
2020-03-21 20:00:00 11 6 Sudeste 13 Sudoeste 0 1007 1.2 90
2020-03-21 19:00:00 11.5 9 Oeste 39 Oeste 1.5 1006.6 1.1 86
2020-03-21 18:00:00 12.4 10 Oeste 26 Oeste 0.2 1006.4 0 84
2020-03-21 17:00:00 11.9 7 Este 52 Oeste 1.1 1005.8 -2.5 89
2020-03-21 16:00:00 12.7 24 Sur 46 Sudeste 7.7 1005.5 -3.8 90
2020-03-21 15:00:00 13.3 24 Sudeste 35 Sudeste 0 1006.4 -3.3 83
2020-03-21 14:00:00 12.3 6 Sudeste 21 Sudoeste 0.7 1008.3 -1.6 85
2020-03-21 13:00:00 11.7 13 Sudoeste 41 Sudoeste 0.7 1009.3 -0.8 88
2020-03-21 12:00:00 14.4 18 Sur 26 Sur 0.1 1009.7 -0.2 73
2020-03-21 11:00:00 14.2 15 Sur 26 Sur 0 1009.9 0.1 76
2020-03-21 10:00:00 12.7 13 Sur 17 Sur 0 1010.1 0.5 97
2020-03-21 09:00:00 11.6 9 Sudeste 15 Sur 0 1009.9 0.6 100
2020-03-21 08:00:00 9.3 10 Sudeste 11 Sur 0 1009.8 0.5 100
2020-03-21 07:00:00 9.1 8 Sur -- -- 0 1009.6 0.1 100
2020-03-21 06:00:00 10.6 4 Sudoeste 15 Oeste 0 1009.3 -0.2 98
2020-03-21 05:00:00 11.2 9 Oeste 18 Sudoeste 0 1009.3 0.3 98
2020-03-21 04:00:00 11.6 14 Sudoeste 28 Sudoeste 0 1009.5 1 99
2020-03-21 03:00:00 12 21 Sudoeste 30 Sudoeste 0.2 1009.5 0.8 100
2020-03-21 02:00:00 12.7 12 Sudoeste 42 Oeste 1.6 1009 0.1 100
2020-03-21 01:00:00 14.3 24 Sudoeste 39 Sudoeste 5.5 1008.5 -0.3 100
2020-03-21 00:00:00 14.7 18 Sur 30 Sur 3.2 1008.7 0.7 97
2020-03-20 23:00:00 14.4 19 Sur 35 Sur 3.3 1008.9 1.5 92
2020-03-20 22:00:00 15.1 19 Sur 35 Sudoeste 1.3 1008.8 1.1 86
2020-03-20 21:00:00 17.8 19 Sudoeste 32 Sudoeste 0 1008 0.3 65
2020-03-20 20:00:00 19.3 11 Sur 18 Sur 0 1007.4 -0.7 56
2020-03-20 19:00:00 19.7 10 Sur 17 Sur 0 1007.7 -1 54
2020-03-20 18:00:00 20.3 13 Sudeste 18 Sur 0 1007.7 -1.6 51
2020-03-20 17:00:00 21.1 7 Sudeste 18 Sur 0 1008.1 -2.2 48
2020-03-20 16:00:00 20.5 4 Norte 11 Norte 0 1008.7 -1.9 52
2020-03-20 15:00:00 19.3 4 Noroeste 22 Oeste 0 1009.3 -1.9 57
2020-03-20 14:00:00 18.3 13 Oeste 21 Oeste 0 1010.3 -0.9 67
2020-03-20 13:00:00 17.9 11 Oeste 21 Oeste 0 1010.6 -0.6 62
2020-03-20 12:00:00 18.1 6 Sur 13 Nordeste 0 1011.2 0.7 55
2020-03-20 11:00:00 17.7 4 Nordeste 9 Nordeste 0 1011.2 1.1 58
2020-03-20 10:00:00 16.3 4 Sudeste 15 Nordeste 0 1011.2 1.1 64
2020-03-20 09:00:00 14.7 11 Nordeste 15 Nordeste 0 1010.5 0.8 74
2020-03-20 08:00:00 14.1 4 Nordeste 9 Este 0 1010.1 0.2 79
2020-03-20 07:00:00 13.6 4 Este 8 Este 0 1010.1 0 87
2020-03-20 06:00:00 14.5 5 Este 11 Sudeste 0 1009.7 -0.9 83
2020-03-20 05:00:00 14.4 6 Este 9 Este 0 1009.9 -1.3 83
2020-03-20 04:00:00 14.9 4 Norte 11 Oeste 0 1010.1 -1.2 80
2020-03-20 03:00:00 15.7 8 Oeste 11 Noroeste 0 1010.6 -0.7 77
2020-03-20 02:00:00 15.5 0 Calma 15 Sudoeste 0 1011.2 0 78
2020-03-20 01:00:00 15.9 9 Sudoeste 13 Sudoeste 0 1011.3 0.5 73
2020-03-20 00:00:00 16.6 9 Sudoeste 21 Sudoeste 0 1011.3 1.1 72
2020-03-19 23:00:00 17 6 Sur 15 Sudeste 0 1011.2 1.2 65
2020-03-19 22:00:00 17.4 6 Sur 13 Sudeste 0 1010.8 1.3 62
2020-03-19 21:00:00 18.3 8 Sudeste 13 Sudeste 0 1010.2 0.6 60
2020-03-19 20:00:00 20.1 11 Este 26 Este 0 1010 0.1 53
2020-03-19 19:00:00 21.3 16 Este 28 Este 0 1009.5 -0.9 50
2020-03-19 18:00:00 22 17 Este 24 Este 0 1009.6 -1.4 47
2020-03-19 17:00:00 22.4 18 Este 30 Este 0 1009.9 -1.9 46
2020-03-19 16:00:00 22.7 18 Este 32 Nordeste 0 1010.4 -2.5 45
2020-03-19 15:00:00 21.8 19 Este 37 Este 0 1011 -2.5 48
2020-03-19 14:00:00 22.1 26 Este 39 Este 0 1011.8 -2.2 42
2020-03-19 13:00:00 20.2 26 Nordeste 45 Este 0 1012.9 -1 50
2020-03-19 12:00:00 19.3 33 Este 45 Este 0 1013.5 0 52
2020-03-19 11:00:00 18 29 Este 42 Este 0 1014 0.8 59
2020-03-19 10:00:00 16.1 20 Nordeste 26 Este 0 1013.9 0.2 71
2020-03-19 09:00:00 14.2 14 Nordeste 28 Nordeste 0 1013.5 -0.6 77
2020-03-19 08:00:00 13 19 Nordeste 28 Nordeste 0 1013.2 -1.1 83
2020-03-19 07:00:00 12.9 14 Nordeste 18 Nordeste 0 1013.7 -0.9 85
2020-03-19 06:00:00 12.8 10 Nordeste 18 Norte 0 1014.1 -0.9 85
2020-03-19 05:00:00 13.3 5 Nordeste 13 Norte 0 1014.3 -0.5 83
2020-03-19 04:00:00 13.6 9 Nordeste 11 Nordeste 0 1014.6 -0.2 80
2020-03-19 03:00:00 14.5 9 Nordeste 17 Este 0 1015 0.4 76
2020-03-19 02:00:00 15.1 13 Nordeste 17 Nordeste 0 1014.8 0.3 73
2020-03-19 01:00:00 15.5 8 Este 22 Este 0 1014.8 0.6 69
2020-03-19 00:00:00 15.9 15 Nordeste 21 Nordeste 0 1014.6 0.8 65
2020-03-18 23:00:00 15.8 8 Nordeste 13 Este 0 1014.5 1.2 65
2020-03-18 22:00:00 17.1 9 Este 17 Este 0 1014.2 1.4 60
2020-03-18 21:00:00 18.7 13 Este 18 Sudeste 0 1013.8 1 54
2020-03-18 20:00:00 20.2 14 Este 26 Este 0 1013.3 0.4 49
2020-03-18 19:00:00 21.6 22 Este 35 Este 0 1012.8 -0.4 43
2020-03-18 18:00:00 23.4 25 Este 37 Este 0 1012.8 -0.8 39
2020-03-18 17:00:00 24.1 26 Este 42 Sudeste 0 1012.9 -1.5 38
2020-03-18 16:00:00 24.1 28 Este 46 Este 0 1013.2 -1.8 39
2020-03-18 15:00:00 23.6 30 Este 55 Sudeste 0 1013.6 -1.9 41
2020-03-18 14:00:00 22.9 34 Este 48 Este 0 1014.4 -1.2 44
2020-03-18 13:00:00 21.6 27 Este 46 Este 0 1015 -0.2 51
2020-03-18 12:00:00 20.4 29 Este 42 Este 0 1015.5 0.8 51
2020-03-18 11:00:00 18.8 27 Este 45 Este 0 1015.6 1.2 54
2020-03-18 10:00:00 17.4 31 Este 54 Este 0 1015.2 1.1 59
2020-03-18 09:00:00 16.3 34 Este 48 Este 0 1014.7 0.6 62
2020-03-18 08:00:00 14.9 24 Este 35 Este 0 1014.4 0.4 69
2020-03-18 07:00:00 15.1 23 Este 37 Este 0 1014.1 0.4 70
2020-03-18 06:00:00 14.5 24 Este 32 Este 0 1014.1 -0.6 75
2020-03-18 05:00:00 13.8 14 Nordeste 26 Nordeste 0 1014 -1.9 76
2020-03-18 04:00:00 13.7 13 Nordeste 33 Nordeste 0 1013.7 -1.7 75
2020-03-18 03:00:00 13.1 17 Nordeste 21 Nordeste 0 1014.7 -0.7 80
2020-03-18 02:00:00 13.6 13 Este 21 Este 0 1015.9 0.6 75
2020-03-18 01:00:00 12.4 12 Sudeste 15 Sudeste 0 1015.4 0.6 79
2020-03-18 00:00:00 12.1 4 Sudeste 5 Sudeste 0 1015.4 -0.1 82
2020-03-17 23:00:00 13.1 0 Calma 22 Nordeste 0 1015.3 -0.2 74
2020-03-17 22:00:00 13.9 16 Nordeste 22 Nordeste 0 1014.8 -0.5 71
2020-03-17 21:00:00 15.8 9 Nordeste 18 Nordeste 0 1015.5 0.3 62
2020-03-17 20:00:00 17 13 Este 17 Este 0 1015.5 0.3 51
2020-03-17 19:00:00 17.8 13 Nordeste 30 Este 0 1015.3 0.1 42
2020-03-17 18:00:00 18.1 19 Este 35 Este 0 1015.2 0.2 40
2020-03-17 17:00:00 18.5 21 Este 37 Este 0 1015.2 -0.2 39
2020-03-17 16:00:00 17.9 30 Este 58 Este 0 1015.2 -1.1 40
2020-03-17 15:00:00 18.5 41 Este 54 Este 0 1015 -1.8 37
2020-03-17 14:00:00 17.7 36 Este 59 Este 0 1015.4 -0.6 45
2020-03-17 13:00:00 14.9 24 Este 35 Este 0 1016.3 0.9 62
2020-03-17 12:00:00 12.8 25 Este 42 Este 0 1016.8 1.9 75
2020-03-17 11:00:00 12.3 25 Este 42 Este 0 1016 1.9 75
2020-03-17 10:00:00 11.1 21 Este 33 Este 0.1 1015.4 1.8 86
2020-03-17 09:00:00 8.8 16 Este 26 Este 0.7 1014.9 1.8 96
2020-03-17 08:00:00 8.5 11 Este 17 Este 0.6 1014.1 1.5 97
2020-03-17 07:00:00 8.8 14 Este 21 Este 0.2 1013.6 1 88
2020-03-17 06:00:00 9 12 Sudeste 18 Sudeste 0 1013.1 0.2 86
2020-03-17 05:00:00 9.2 13 Sudeste 18 Sudeste 0 1012.6 -0.6 89
2020-03-17 04:00:00 9.6 7 Sudeste 11 Sudeste 0 1012.6 -0.6 91
2020-03-17 03:00:00 9.5 6 Sur 8 Sur 0 1012.9 -0.4 85
2020-03-17 02:00:00 10.4 4 Noroeste 8 Noroeste 0 1013.2 -0.3 77
2020-03-17 01:00:00 10.4 7 Noroeste 15 Norte 0 1013.2 0.1 81
2020-03-17 00:00:00 10.6 11 Noroeste 17 Noroeste 0 1013.3 0.2 78
2020-03-16 23:00:00 10.8 14 Noroeste 32 Noroeste 0 1013.5 1 72
2020-03-16 22:00:00 11.3 8 Noroeste 18 Noroeste 0 1013.1 1.2 72
2020-03-16 21:00:00 11.3 13 Noroeste 22 Noroeste 0.1 1013.1 2.3 76
2020-03-16 20:00:00 11.8 12 Noroeste 50 Noroeste 0 1012.5 1.6 67
2020-03-16 19:00:00 13.6 23 Norte 46 Norte 0 1011.9 1 50
2020-03-16 18:00:00 15.9 24 Norte 39 Norte 0 1010.8 -0.3 34
2020-03-16 17:00:00 16.1 22 Noroeste 41 Noroeste 0 1010.9 -0.7 34
2020-03-16 16:00:00 16.5 23 Noroeste 45 Noroeste 0 1010.9 -1.2 32
2020-03-16 15:00:00 16.7 28 Noroeste 41 Noroeste 0 1011.1 -1.8 32
2020-03-16 14:00:00 16 26 Noroeste 42 Noroeste 0 1011.6 -1.6 33
2020-03-16 13:00:00 15.4 20 Noroeste 41 Noroeste 0 1012.1 -1.6 34
2020-03-16 12:00:00 14.1 23 Noroeste 35 Noroeste 0 1012.9 -0.7 40
2020-03-16 11:00:00 12.5 15 Noroeste 30 Noroeste 0 1013.2 0.2 48
2020-03-16 10:00:00 11.4 16 Noroeste 24 Noroeste 0 1013.7 1.2 50
2020-03-16 09:00:00 10.2 10 Noroeste 17 Oeste 0 1013.6 1.7 54
2020-03-16 08:00:00 9.1 6 Oeste 11 Norte 0 1013 1.8 57
2020-03-16 07:00:00 9.3 8 Noroeste 21 Noroeste 0 1012.5 1.7 56
2020-03-16 06:00:00 10.6 19 Noroeste 35 Norte 0 1011.9 1.2 47
2020-03-16 05:00:00 11.7 21 Noroeste 37 Noroeste 0 1011.2 0.5 47
2020-03-16 04:00:00 13.1 25 Noroeste 35 Noroeste 0 1010.8 0.3 40
2020-03-16 03:00:00 14 21 Noroeste 37 Noroeste 0 1010.7 0.2 45
2020-03-16 02:00:00 15 26 Noroeste 42 Noroeste 0 1010.7 -0.1 55
2020-03-16 01:00:00 16.7 17 Oeste 30 Oeste 0 1010.5 -0.2 75
2020-03-16 00:00:00 16.6 17 Sudoeste 30 Sudoeste 0 1010.5 0.4 77
2020-03-15 23:00:00 16.3 16 Sudoeste 28 Sudoeste 0 1010.8 1.6 77
2020-03-15 22:00:00 17.4 18 Sudoeste 30 Oeste 0 1010.7 1.9 70
2020-03-15 21:00:00 18.9 23 Oeste 32 Oeste 0 1010.1 1.1 64
2020-03-15 20:00:00 20.1 22 Oeste 35 Oeste 0 1009.2 -0.5 56
2020-03-15 19:00:00 22.4 14 Sudoeste 24 Oeste 0 1008.8 -1.4 48
2020-03-15 18:00:00 23.1 16 Sudoeste 28 Sudoeste 0 1009 -1.8 46
2020-03-15 17:00:00 23.4 15 Sudoeste 26 Oeste 0 1009.7 -2.2 43
2020-03-15 16:00:00 23.3 15 Sudoeste 26 Sudoeste 0 1010.2 -2.3 44
2020-03-15 15:00:00 23.1 9 Sudoeste 22 Oeste 0 1010.8 -2.4 49
2020-03-15 14:00:00 21.4 10 Oeste 18 Oeste 0 1011.9 -1.7 55
2020-03-15 13:00:00 19.8 5 Oeste 15 Oeste 0 1012.5 -1.2 63
2020-03-15 12:00:00 18.2 7 Oeste 17 Norte 0 1013.2 -0.4 71
2020-03-15 11:00:00 16.3 3 Noroeste 11 Norte 0 1013.6 0.6 78
2020-03-15 10:00:00 14.4 0 Calma 8 Sur 0 1013.7 1 95
2020-03-15 09:00:00 12.3 4 Sur 9 Sur 0 1013.6 0.9 100
2020-03-15 08:00:00 10.9 4 Este 11 Norte 0 1013 0.3 100
2020-03-15 07:00:00 11.3 6 Nordeste 8 Nordeste 0 1012.7 0 100
2020-03-15 06:00:00 11.1 4 Sudeste -- -- 0 1012.7 -0.3 100
2020-03-15 05:00:00 11.5 7 Sudeste 9 Sudeste 0 1012.7 -0.6 99
2020-03-15 04:00:00 11.9 3 Sur 5 Sudeste 0 1012.7 -0.6 92
2020-03-15 03:00:00 12.6 5 Sudeste 9 Sur 0 1013 -0.7 91
2020-03-15 02:00:00 13.5 7 Sur 15 Sur 0 1013.3 -0.4 89
2020-03-15 01:00:00 14.2 6 Sur 15 Sur 0 1013.3 -0.1 86
2020-03-15 00:00:00 14.9 4 Sur 9 Sur 0 1013.7 0.4 82
2020-03-14 23:00:00 14.5 9 Sudeste 11 Sudeste 0 1013.7 0.7 84
2020-03-14 22:00:00 15.8 6 Este 8 Este 0 1013.4 0.4 79
2020-03-14 21:00:00 18.7 3 Este 9 Norte 0 1013.3 0.2 68
2020-03-14 20:00:00 20.1 4 Norte 9 Noroeste 0 1013 -0.5 61
2020-03-14 19:00:00 22.1 5 Sudoeste 11 Oeste 0 1013 -1.1 53
2020-03-14 18:00:00 22.7 4 Sudoeste 13 Noroeste 0 1013.1 -1.9 51
2020-03-14 17:00:00 21.6 5 Oeste 13 Noroeste 0 1013.5 -2.5 57
2020-03-14 16:00:00 20 6 Noroeste 13 Noroeste 0 1014.1 -2.7 62
2020-03-14 15:00:00 18.9 6 Noroeste 17 Norte 0 1015 -2.1 68
2020-03-14 14:00:00 17.8 6 Oeste 15 Noroeste 0 1016 -1.4 71
2020-03-14 13:00:00 15.9 6 Oeste 13 Noroeste 0 1016.8 -0.3 84
2020-03-14 12:00:00 15.4 6 Norte 13 Norte 0 1017.1 0.6 89
2020-03-14 11:00:00 14.7 6 Sudoeste 13 Sudoeste 0 1017.4 1.4 93
2020-03-14 10:00:00 14.2 8 Oeste 15 Sudoeste 0 1017.1 1.4 96
2020-03-14 09:00:00 13.9 9 Sudoeste 15 Sur 0 1016.5 0.9 99
2020-03-14 08:00:00 13.4 4 Noroeste 13 Norte 0 1016 0.8 100
2020-03-14 07:00:00 13.4 5 Oeste 11 Sudoeste 0 1015.7 0.4 100
2020-03-14 06:00:00 13 6 Sudoeste 11 Sudoeste 0 1015.6 0.3 100
2020-03-14 05:00:00 12.7 4 Sur 13 Norte 0 1015.2 -0.1 100
2020-03-14 04:00:00 12.8 6 Noroeste 13 Noroeste 0 1015.3 0.1 100
2020-03-14 03:00:00 13.1 10 Sudoeste 18 Sudoeste 0 1015.3 0.4 100
2020-03-14 02:00:00 13.7 13 Sur 24 Sudoeste 0 1015.3 0.4 100
2020-03-14 01:00:00 14 14 Sudoeste 21 Sudoeste 0 1015.2 0.6 97
2020-03-14 00:00:00 14.3 14 Sur 18 Sur 0 1014.9 1 92
2020-03-13 23:00:00 14.9 12 Sudoeste 22 Sur 0 1014.9 1.5 89
2020-03-13 22:00:00 16.2 12 Sudoeste 24 Sudoeste 0 1014.6 1.5 83
2020-03-13 21:00:00 17.6 15 Sudoeste 24 Sudoeste 0 1013.9 1.2 78
2020-03-13 20:00:00 19.2 18 Sudoeste 24 Sudoeste 0 1013.4 0.6 71
2020-03-13 19:00:00 21.2 14 Sudoeste 22 Sudoeste 0 1013.1 -0.1 63
2020-03-13 18:00:00 22 17 Sudoeste 24 Sudoeste 0 1012.7 -1 59
2020-03-13 17:00:00 22.7 15 Sudoeste 24 Sudoeste 0 1012.8 -1.8 55
2020-03-13 16:00:00 22.2 12 Sudoeste 22 Sudoeste 0 1013.2 -2.1 53
2020-03-13 15:00:00 21.4 13 Sudoeste 24 Sudoeste 0 1013.7 -2.1 55
2020-03-13 14:00:00 20.2 9 Sudoeste 17 Noroeste 0 1014.6 -1.4 59
2020-03-13 13:00:00 19.1 6 Oeste 15 Sur 0 1015.3 -0.5 63
2020-03-13 12:00:00 17.7 7 Oeste 13 Oeste 0 1015.8 0.6 68
2020-03-13 11:00:00 15.2 3 Oeste 17 Oeste 0 1016 1.4 78
2020-03-13 10:00:00 14.6 5 Sudoeste 15 Oeste 0 1015.8 1.5 82
2020-03-13 09:00:00 13.8 9 Sudoeste 13 Oeste 0 1015.2 1 87
2020-03-13 08:00:00 13.6 8 Sudoeste 13 Sur 0 1014.6 0.4 95
2020-03-13 07:00:00 13.6 8 Sudoeste 13 Sudoeste 0 1014.3 0.2 97
2020-03-13 06:00:00 13.8 8 Sudoeste 17 Oeste 0 1014.2 -0.1 100
2020-03-13 05:00:00 13.6 11 Sudoeste 21 Oeste 0 1014.2 -0.1 100
2020-03-13 04:00:00 13.8 12 Sudoeste 18 Sudoeste 0 1014.1 -0.5 100
2020-03-13 03:00:00 14 7 Sudoeste 17 Sur 0 1014.3 -0.5 100
2020-03-13 02:00:00 13.3 6 Sudeste 17 Sur 0 1014.3 -0.4 99
2020-03-13 01:00:00 13.8 10 Sur 13 Sur 0 1014.6 0.1 93
2020-03-13 00:00:00 15.3 7 Sur 18 Sur 0 1014.8 0.5 88
2020-03-12 23:00:00 16.1 14 Sudoeste 18 Sur 0 1014.7 1.1 83
2020-03-12 22:00:00 17.1 12 Sudoeste 17 Sudoeste 0 1014.5 0.9 74
2020-03-12 21:00:00 19.1 10 Sudoeste 17 Sudoeste 0 1014.3 0.9 51
2020-03-12 20:00:00 20.6 8 Sudoeste 28 Oeste 0 1013.6 0.1 44
2020-03-12 19:00:00 21.5 9 Sudoeste 32 Sudoeste 0 1013.6 -0.3 47
2020-03-12 18:00:00 23.9 21 Sudoeste 30 Sudoeste 0 1013.4 -1.2 41
2020-03-12 17:00:00 23.8 17 Sudoeste 30 Sudoeste 0 1013.5 -2.1 45
2020-03-12 16:00:00 24.9 20 Sudoeste 30 Sudoeste 0 1013.9 -2.6 46
2020-03-12 15:00:00 23.1 14 Sudoeste 24 Oeste 0 1014.6 -2.3 56
2020-03-12 14:00:00 22.2 11 Sudoeste 18 Sudoeste 0 1015.6 -1.6 54
2020-03-12 13:00:00 21.3 9 Sudoeste 17 Sudoeste 0 1016.5 -0.4 53
2020-03-12 12:00:00 20 9 Sudoeste 17 Sudoeste 0 1016.9 0.5 63
2020-03-12 11:00:00 18.5 12 Sudoeste 17 Sudoeste 0 1017.2 1.6 63
2020-03-12 10:00:00 16.2 10 Oeste 13 Oeste 0 1016.9 1.7 62
2020-03-12 09:00:00 14.1 6 Oeste 9 Oeste 0 1016.4 1.6 76
2020-03-12 08:00:00 11.3 6 Sudeste 8 Sudeste 0 1015.6 1 84
2020-03-12 07:00:00 11.2 4 Sur 8 Sudeste 0 1015.2 0.2 82
2020-03-12 06:00:00 12.1 0 Calma 8 Nordeste 0 1014.8 -0.7 79
2020-03-12 05:00:00 12.5 4 Oeste -- -- 0 1014.6 -1.1 77
2020-03-12 04:00:00 12.8 10 Sudeste 11 Sudeste 0 1015 -0.9 77
2020-03-12 03:00:00 14.2 0 Calma 5 Noroeste 0 1015.5 -0.7 68
2020-03-12 02:00:00 15.1 2 Sur 13 Sudeste 0 1015.7 -0.2 65
2020-03-12 01:00:00 15.6 5 Sudeste 11 Sudeste 0 1015.9 0.4 62
2020-03-12 00:00:00 16.2 10 Sudeste 13 Sudeste 0 1016.2 1.4 60
2020-03-11 23:00:00 19.4 8 Sur 17 Sur 0 1015.9 1.3 48
2020-03-11 22:00:00 19.8 9 Sur 15 Este 0 1015.5 0.8 47
2020-03-11 21:00:00 21.5 14 Este 17 Este 0 1014.8 0 42
2020-03-11 20:00:00 24.1 12 Nordeste 18 Este 0 1014.6 -0.3 36
2020-03-11 19:00:00 27.6 14 Este 22 Este 0 1014.7 -0.7 28
2020-03-11 18:00:00 29.2 14 Este 24 Este 0 1014.8 -1.1 25
2020-03-11 17:00:00 30.8 16 Este 22 Este 0 1014.9 -2.2 22
2020-03-11 16:00:00 30.9 14 Este 22 Este 0 1015.4 -2.5 22
2020-03-11 15:00:00 30.4 14 Este 28 Este 0 1015.9 -3 24
2020-03-11 14:00:00 29.1 14 Este 24 Este 0 1017.1 -2.2 26
2020-03-11 13:00:00 27 15 Este 26 Nordeste 0 1017.9 -1.7 30
2020-03-11 12:00:00 23.5 15 Nordeste 26 Nordeste 0 1018.9 -0.7 40
2020-03-11 11:00:00 20.8 18 Nordeste 30 Nordeste 0 1019.3 -0.2 46
2020-03-11 10:00:00 18.2 15 Nordeste 22 Nordeste 0 1019.6 0.3 54
2020-03-11 09:00:00 14.5 9 Nordeste 18 Este 0 1019.6 0.3 67
2020-03-11 08:00:00 12.3 10 Este 24 Nordeste 0 1019.5 0.5 69
2020-03-11 07:00:00 10.4 14 Nordeste 18 Nordeste 0 1019.3 0.3 84
2020-03-11 06:00:00 11.2 5 Oeste 11 Noroeste 0 1019.3 -0.6 77
2020-03-11 05:00:00 11.8 4 Noroeste 13 Este 0 1019 -1.1 78
2020-03-11 04:00:00 12 6 Este 13 Este 0 1019 -1.5 78
2020-03-11 03:00:00 12.7 2 Nordeste 11 Este 0 1019.9 -0.7 75
2020-03-11 02:00:00 13.7 4 Sudeste 11 Nordeste 0 1020.1 -0.4 71
2020-03-11 01:00:00 14.5 8 Norte 13 Noroeste 0 1020.5 0.3 67
2020-03-11 00:00:00 15.2 2 Este 5 Este 0 1020.6 0.4 65
2020-03-10 23:00:00 17.1 0 Calma 13 Sudeste 0 1020.5 0.5 56
2020-03-10 22:00:00 17.6 10 Sur 17 Sur 0 1020.2 0.5 56
2020-03-10 21:00:00 19.8 5 Nordeste 8 Nordeste 0 1020.2 0.5 50
2020-03-10 20:00:00 23.6 0 Calma 11 Este 0 1020 0.2 37
2020-03-10 19:00:00 26.4 10 Este 18 Este 0 1019.7 -0.6 28
2020-03-10 18:00:00 27.6 13 Este 22 Este 0 1019.7 -1 25
2020-03-10 17:00:00 27.8 15 Este 30 Este 0 1019.8 -1.9 24
2020-03-10 16:00:00 27.6 20 Este 37 Este 0 1020.3 -1.9 24
2020-03-10 15:00:00 26.7 20 Este 37 Este 0 1020.7 -1.9 24
2020-03-10 14:00:00 25.5 24 Nordeste 35 Nordeste 0 1021.7 -1.3 26
2020-03-10 13:00:00 24 25 Nordeste 45 Nordeste 0 1022.2 -0.7 27
2020-03-10 12:00:00 22.3 30 Nordeste 41 Nordeste 0 1022.6 0.3 28
2020-03-10 11:00:00 20.1 28 Nordeste 39 Este 0 1023 1 34
2020-03-10 10:00:00 17.3 17 Nordeste 26 Nordeste 0 1022.9 1.6 43
2020-03-10 09:00:00 14.3 14 Nordeste 21 Nordeste 0 1022.3 1.1 53
2020-03-10 08:00:00 12.6 11 Este 24 Nordeste 0 1022 1 59
2020-03-10 07:00:00 11.7 14 Nordeste 22 Nordeste 0 1021.3 0.4 62
2020-03-10 06:00:00 13.3 17 Nordeste 24 Nordeste 0 1021.2 -0.3 54
2020-03-10 05:00:00 11.9 9 Nordeste 15 Nordeste 0 1021 -1 61
2020-03-10 04:00:00 12.8 9 Nordeste 13 Nordeste 0 1020.9 -1.2 56
2020-03-10 03:00:00 13.9 6 Nordeste 17 Nordeste 0 1021.5 -0.6 53
2020-03-10 02:00:00 15.1 12 Nordeste 17 Norte 0 1022 0 47
2020-03-10 01:00:00 13.3 2 Norte 8 Norte 0 1022.1 0.4 60
2020-03-10 00:00:00 14.6 0 Calma 8 Norte 0 1022.1 1 55
2020-03-09 23:00:00 15.9 2 Noroeste 17 Norte 0 1022 1.8 43
2020-03-09 22:00:00 16.9 7 Norte 17 Norte 0 1021.7 1.5 45
2020-03-09 21:00:00 18.8 10 Nordeste 21 Nordeste 0 1021.1 1.1 36
2020-03-09 20:00:00 21.5 10 Norte 28 Norte 0 1020.2 0.1 28
2020-03-09 19:00:00 24.3 13 Noroeste 26 Norte 0 1020.2 -0.8 25
2020-03-09 18:00:00 24.8 12 Noroeste 21 Oeste 0 1020 -1.7 26
2020-03-09 17:00:00 24.8 9 Oeste 18 Noroeste 0 1020.1 -2.9 26
2020-03-09 16:00:00 23.6 9 Oeste 22 Oeste 0 1021 -2.8 28
2020-03-09 15:00:00 22.7 5 Sudeste 21 Noroeste 0 1021.7 -2.5 31
2020-03-09 14:00:00 21.4 6 Noroeste 18 Norte 0 1023 -1.4 34
2020-03-09 13:00:00 20 6 Norte 17 Norte 0 1023.8 -0.4 37
2020-03-09 12:00:00 18.8 6 Oeste 15 Oeste 0 1024.2 0.5 51
2020-03-09 11:00:00 17 6 Nordeste 13 Este 0 1024.4 1.3 59
2020-03-09 10:00:00 14.5 9 Nordeste 13 Nordeste 0 1024.2 1.6 70
2020-03-09 09:00:00 12.3 0 Calma 9 Noroeste 0 1023.7 1.3 80
2020-03-09 08:00:00 10.5 6 Noroeste 9 Noroeste 0 1023.1 1 84
2020-03-09 07:00:00 11.3 4 Noroeste 17 Nordeste 0 1022.6 0.3 80
2020-03-09 06:00:00 13.4 16 Norte 26 Nordeste 0 1022.4 -0.5 75
2020-03-09 05:00:00 13.4 5 Nordeste 21 Nordeste 0 1022.1 -0.6 72
2020-03-09 04:00:00 12.9 10 Este 15 Este 0 1022.3 -0.2 69
2020-03-09 03:00:00 14.9 11 Nordeste 28 Nordeste 0 1022.9 0.4 59
2020-03-09 02:00:00 15.2 21 Nordeste 28 Nordeste 0 1022.7 0.4 56
2020-03-09 01:00:00 13.7 5 Nordeste 9 Nordeste 0 1022.5 0.4 61
2020-03-09 00:00:00 15.8 3 Nordeste 15 Norte 0 1022.5 1.4 51
2020-03-08 23:00:00 17.7 6 Norte 21 Nordeste 0 1022.3 1.4 44
2020-03-08 22:00:00 18.3 8 Noroeste 13 Norte 0 1022.1 1.2 39
2020-03-08 21:00:00 18.9 13 Sur 15 Sur 0 1021.1 0.6 42
2020-03-08 20:00:00 20 10 Sur 13 Sur 0 1020.9 0.4 33
2020-03-08 19:00:00 22.8 7 Sur 13 Sur 0 1020.9 0 26
2020-03-08 18:00:00 23.7 7 Sudoeste 22 Oeste 0 1020.5 -1.2 24
2020-03-08 17:00:00 23.9 9 Oeste 18 Noroeste 0 1020.5 -1.7 23
2020-03-08 16:00:00 23.4 7 Noroeste 17 Oeste 0 1020.9 -2.4 22
2020-03-08 15:00:00 22.9 6 Noroeste 24 Noroeste 0 1021.7 -2.3 24
2020-03-08 14:00:00 22 5 Sudoeste 15 Este 0 1022.2 -1.9 26
2020-03-08 13:00:00 20.5 8 Nordeste 18 Nordeste 0 1023.3 -0.2 33
2020-03-08 12:00:00 17.9 11 Nordeste 18 Norte 0 1024 0.8 41
2020-03-08 11:00:00 15.3 9 Nordeste 26 Nordeste 0 1024.1 1.6 50
2020-03-08 10:00:00 12.1 16 Nordeste 24 Nordeste 0 1023.5 1.4 61
2020-03-08 09:00:00 9.1 11 Nordeste 17 Este 0 1023.2 1.3 72
2020-03-08 08:00:00 6.4 4 Norte 11 Nordeste 0 1022.5 0.5 81
2020-03-08 07:00:00 6.6 6 Norte 9 Nordeste 0 1022.1 0.5 80
2020-03-08 06:00:00 7.1 3 Noroeste 8 Noroeste 0 1021.9 -0.2 77
2020-03-08 05:00:00 8 5 Noroeste 9 Norte 0 1022 -0.6 73
2020-03-08 04:00:00 8.9 5 Norte 9 Nordeste 0 1021.6 -1.2 69
2020-03-08 03:00:00 9.1 3 Norte 8 Norte 0 1022.1 -0.8 70
2020-03-08 02:00:00 10.1 3 Norte 13 Nordeste 0 1022.6 -0.2 66
2020-03-08 01:00:00 11 9 Nordeste 17 Nordeste 0 1022.8 0.6 64
2020-03-08 00:00:00 11.8 5 Nordeste 15 Norte 0 1022.9 1 57
2020-03-07 23:00:00 12.1 8 Norte 17 Norte 0 1022.8 1.5 57
2020-03-07 22:00:00 12.2 5 Sudeste 8 Sudeste 0 1022.2 1.5 58
2020-03-07 21:00:00 13.6 4 Sudeste 9 Sudeste 0 1021.9 1.6 52
2020-03-07 20:00:00 16.7 9 Sudeste 11 Sudeste 0 1021.3 0.9 43
2020-03-07 19:00:00 20.8 3 Sudeste 11 Sudeste 0 1020.7 -0.2 25
2020-03-07 18:00:00 21.5 0 Calma 17 Este 0 1020.3 -0.9 24
2020-03-07 17:00:00 21 10 Nordeste 24 Este 0 1020.4 -1.8 24
2020-03-07 16:00:00 20.8 15 Este 30 Este 0 1020.9 -2.1 24
2020-03-07 15:00:00 20.6 17 Este 35 Nordeste 0 1021.2 -2.5 26
2020-03-07 14:00:00 19.2 17 Este 33 Nordeste 0 1022.2 -1.7 28
2020-03-07 13:00:00 18.2 21 Nordeste 33 Nordeste 0 1023 -0.3 31
2020-03-07 12:00:00 16.5 21 Nordeste 32 Este 0 1023.7 0.9 34
2020-03-07 11:00:00 14 20 Nordeste 30 Nordeste 0 1023.9 1.8 45
2020-03-07 10:00:00 12.4 19 Nordeste 26 Nordeste 0 1023.3 1.2 51
2020-03-07 09:00:00 10.5 12 Nordeste 26 Nordeste 0 1022.8 0.9 61
2020-03-07 08:00:00 9.3 19 Nordeste 28 Nordeste 0 1022.1 0.2 65
2020-03-07 07:00:00 8.6 12 Nordeste 18 Nordeste 0 1022.1 0 70
2020-03-07 06:00:00 7.8 10 Norte 15 Nordeste 0 1021.9 -0.5 77
2020-03-07 05:00:00 8.2 8 Nordeste 9 Nordeste 0 1021.9 -0.5 76
2020-03-07 04:00:00 9.8 4 Nordeste 22 Norte 0 1022.1 -0.1 68
2020-03-07 03:00:00 11.3 15 Noroeste 22 Noroeste 0 1022.4 0.4 63
2020-03-07 02:00:00 10.5 7 Norte 15 Norte 0 1022.4 0.8 69
2020-03-07 01:00:00 10.8 0 Calma 13 Noroeste 0 1022.2 1.2 68
2020-03-07 00:00:00 12.2 4 Oeste 21 Noroeste 0 1022 1.7 61
2020-03-06 23:00:00 13 8 Noroeste 15 Noroeste 0 1021.6 2.4 58
2020-03-06 22:00:00 14.8 10 Noroeste 28 Norte 0 1021 2.5 51
2020-03-06 21:00:00 15.1 10 Noroeste 26 Norte 0 1020.3 2.3 49
2020-03-06 20:00:00 16.7 16 Noroeste 33 Noroeste 0 1019.2 1.2 44
2020-03-06 19:00:00 18.9 17 Noroeste 32 Noroeste 0 1018.5 0.2 37
2020-03-06 18:00:00 19.9 19 Norte 35 Norte 0 1018 -0.7 32
2020-03-06 17:00:00 20.2 19 Noroeste 37 Noroeste 0 1018 -1.7 33
2020-03-06 16:00:00 19.9 21 Noroeste 35 Noroeste 0 1018.3 -2.1 34
2020-03-06 15:00:00 19.1 21 Noroeste 37 Noroeste 0 1018.7 -1.6 36
2020-03-06 14:00:00 18.3 15 Oeste 35 Oeste 0 1019.7 -1.4 40
2020-03-06 13:00:00 17.6 25 Oeste 37 Noroeste 0 1020.4 -0.2 42
2020-03-06 12:00:00 16 16 Oeste 28 Oeste 0 1020.3 0 51
2020-03-06 11:00:00 15.3 16 Oeste 26 Oeste 0 1021.1 1.4 61
2020-03-06 10:00:00 13.3 21 Oeste 30 Oeste 0 1020.6 0.9 74
2020-03-06 09:00:00 11.7 14 Oeste 24 Oeste 0 1020.3 0.8 79
2020-03-06 08:00:00 9.2 10 Sudoeste 21 Oeste 0 1019.7 0.3 88
2020-03-06 07:00:00 9.1 11 Oeste 24 Oeste 0 1019.7 0.3 84
2020-03-06 06:00:00 8.4 14 Oeste 21 Noroeste 0 1019.5 -0.2 86
2020-03-06 05:00:00 9 8 Oeste 18 Oeste 0 1019.4 -0.3 79
2020-03-06 04:00:00 8.7 15 Oeste 21 Oeste 0 1019.4 0 82
2020-03-06 03:00:00 10.4 16 Oeste 22 Oeste 0 1019.7 0.8 74
2020-03-06 02:00:00 11.1 12 Oeste 24 Oeste 0 1019.7 1.1 71
2020-03-06 01:00:00 12.2 16 Noroeste 22 Noroeste 0 1019.4 1.6 67
2020-03-06 00:00:00 13 15 Oeste 24 Noroeste 0 1018.9 2.1 64
2020-03-05 23:00:00 13.9 17 Noroeste 30 Noroeste 0 1018.6 2.4 59
2020-03-05 22:00:00 14.9 22 Oeste 28 Oeste 0 1017.8 2.4 55
2020-03-05 21:00:00 15.1 15 Oeste 22 Oeste 0 1016.8 2 55
2020-03-05 20:00:00 16.6 12 Noroeste 28 Noroeste 0 1016.2 1.8 49
2020-03-05 19:00:00 19.1 23 Noroeste 35 Noroeste 0 1015.4 1 40
2020-03-05 18:00:00 20.4 21 Noroeste 35 Noroeste 0 1014.8 -0.1 39
2020-03-05 17:00:00 20.3 25 Noroeste 35 Oeste 0 1014.4 -1.1 39
2020-03-05 16:00:00 19.6 24 Noroeste 39 Noroeste 0 1014.4 -1.7 43
2020-03-05 15:00:00 18.6 21 Oeste 35 Oeste 0 1014.9 -1.6 64
2020-03-05 14:00:00 18.2 24 Oeste 35 Oeste 0 1015.5 -1.5 67
2020-03-05 13:00:00 17 23 Oeste 32 Oeste 0 1016.1 0.1 70
2020-03-05 12:00:00 15.3 15 Sudoeste 24 Sudoeste 0 1016.5 0.9 82
2020-03-05 11:00:00 13.9 20 Sudoeste 28 Sudoeste 0 1017 1.4 84
2020-03-05 10:00:00 13.8 11 Sur 15 Sur 0 1016 0.7 91
2020-03-05 09:00:00 10.1 10 Sudeste 13 Sudeste 0 1015.6 0.4 100
2020-03-05 08:00:00 8.9 6 Sudoeste 9 Oeste 0 1015.6 0.3 100
2020-03-05 07:00:00 8.6 4 Sur -- -- 0 1015.3 -0.5 100
2020-03-05 06:00:00 8.7 6 Sudeste 8 Este 0 1015.2 -1.5 100
2020-03-05 05:00:00 9.4 3 Sur 9 Sur 0 1015.3 -1.8 100
2020-03-05 04:00:00 9.4 8 Sur 11 Sur 0 1015.8 -1.8 97
2020-03-05 03:00:00 10.1 2 Oeste 5 Oeste 0 1016.7 -1.3 92
2020-03-05 02:00:00 10.8 0 Calma 9 Sudeste 0 1017.1 -1.2 91
2020-03-05 01:00:00 11.5 5 Este 9 Este 0 1017.6 -0.7 89
2020-03-05 00:00:00 12.6 0 Calma 5 Sudeste 0 1018 -0.2 84